createdAt,value
2017-11-16T00:01:58.231Z,20.10
2017-11-16T00:04:26.091Z,18.58
2017-11-16T00:06:53.200Z,16.87
2017-11-16T00:09:19.526Z,17.87
2017-11-16T00:11:45.851Z,19.48
2017-11-16T00:14:12.015Z,19.10
2017-11-16T00:16:38.361Z,20.90
2017-11-16T00:19:04.698Z,17.67
2017-11-16T00:21:31.053Z,18.83
2017-11-16T00:23:57.441Z,19.12
2017-11-16T00:26:23.817Z,17.42
2017-11-16T00:28:50.182Z,18.02
2017-11-16T00:31:16.511Z,17.83
2017-11-16T00:33:42.845Z,15.57
2017-11-16T00:36:09.258Z,17.20
2017-11-16T00:38:35.623Z,19.33
2017-11-16T00:41:02.045Z,15.40
2017-11-16T00:43:28.425Z,17.02
2017-11-16T00:45:54.762Z,14.98
2017-11-16T00:48:21.136Z,14.80
2017-11-16T00:50:48.269Z,16.98
2017-11-16T00:53:14.671Z,14.98
2017-11-16T00:55:42.137Z,14.25
2017-11-16T00:58:08.566Z,15.60
2017-11-16T01:00:34.935Z,13.55
2017-11-16T01:03:02.072Z,15.57
2017-11-16T01:05:28.893Z,15.40
2017-11-16T01:07:55.057Z,14.43
2017-11-16T01:10:21.433Z,15.95
2017-11-16T01:12:48.544Z,14.48
2017-11-16T01:15:14.883Z,17.25
2017-11-16T01:17:41.219Z,15.90
2017-11-16T01:20:07.691Z,13.65
2017-11-16T01:22:34.101Z,14.23
2017-11-16T01:25:01.265Z,13.50
2017-11-16T01:27:27.609Z,15.52
2017-11-16T01:29:54.002Z,14.77
2017-11-16T01:32:20.982Z,14.55
2017-11-16T01:34:48.115Z,14.35
2017-11-16T01:37:14.561Z,12.77
2017-11-16T01:39:40.944Z,16.35
2017-11-16T01:42:07.397Z,13.60
2017-11-16T01:44:34.495Z,11.63
2017-11-16T01:47:00.886Z,13.23
2017-11-16T01:49:27.238Z,14.45
2017-11-16T01:51:53.578Z,11.82
2017-11-16T01:54:19.956Z,11.50
2017-11-16T01:56:47.061Z,13.35
2017-11-16T01:59:13.410Z,12.55
2017-11-16T02:01:39.741Z,9.57
2017-11-16T02:04:06.120Z,11.20
2017-11-16T02:06:33.207Z,10.85
2017-11-16T02:08:59.558Z,9.80
2017-11-16T02:11:25.897Z,10.82
2017-11-16T02:13:52.261Z,9.60
2017-11-16T02:16:18.623Z,10.60
2017-11-16T02:18:45.023Z,9.85
2017-11-16T02:21:11.719Z,10.43
2017-11-16T02:23:38.058Z,11.82
2017-11-16T02:26:04.420Z,10.18
2017-11-16T02:28:30.769Z,10.85
2017-11-16T02:30:57.120Z,9.32
2017-11-16T02:33:23.497Z,8.40
2017-11-16T02:35:50.556Z,8.23
2017-11-16T02:38:17.640Z,8.45
2017-11-16T02:40:44.040Z,9.43
2017-11-16T02:43:11.205Z,9.13
2017-11-16T02:45:38.339Z,7.90
2017-11-16T02:48:05.674Z,7.72
2017-11-16T02:50:32.758Z,9.45
2017-11-16T02:52:59.180Z,8.88
2017-11-16T02:55:26.268Z,8.45
2017-11-16T02:57:52.616Z,10.32
2017-11-16T03:00:18.941Z,9.32
2017-11-16T03:02:45.718Z,8.98
2017-11-16T03:05:12.090Z,8.48
2017-11-16T03:07:38.518Z,8.70
2017-11-16T03:10:04.902Z,8.27
2017-11-16T03:12:31.986Z,9.55
2017-11-16T03:14:59.082Z,6.53
2017-11-16T03:17:25.259Z,7.65
2017-11-16T03:19:51.614Z,9.32
2017-11-16T03:22:18.720Z,8.45
2017-11-16T03:24:44.878Z,8.38
2017-11-16T03:27:11.254Z,9.05
2017-11-16T03:29:37.703Z,9.10
2017-11-16T03:32:04.061Z,10.35
2017-11-16T03:34:31.089Z,9.43
2017-11-16T03:36:57.456Z,12.10
2017-11-16T03:39:23.844Z,10.57
2017-11-16T03:41:50.213Z,9.63
2017-11-16T03:44:16.585Z,11.95
2017-11-16T03:46:42.961Z,9.65
2017-11-16T03:49:09.330Z,10.82
2017-11-16T03:51:36.430Z,9.73
2017-11-16T03:54:02.600Z,11.52
2017-11-16T03:56:29.048Z,14.38
2017-11-16T03:58:56.179Z,10.60
2017-11-16T04:01:22.540Z,13.85
2017-11-16T04:03:48.879Z,15.23
2017-11-16T04:06:15.226Z,12.68
2017-11-16T04:08:41.611Z,12.93
2017-11-16T04:11:08.093Z,12.55
2017-11-16T04:13:34.461Z,14.85
2017-11-16T04:16:00.819Z,13.20
2017-11-16T04:18:27.169Z,14.38
2017-11-16T04:20:53.514Z,17.25
2017-11-16T04:23:19.861Z,16.52
2017-11-16T04:25:46.254Z,12.88
2017-11-16T04:28:12.598Z,14.95
2017-11-16T04:30:38.970Z,14.55
2017-11-16T04:33:05.284Z,14.68
2017-11-16T04:35:31.684Z,14.32
2017-11-16T04:37:58.024Z,16.33
2017-11-16T04:40:24.370Z,13.95
2017-11-16T04:42:50.734Z,16.10
2017-11-16T04:45:17.191Z,16.15
2017-11-16T04:47:43.538Z,14.73
2017-11-16T04:50:10.035Z,17.12
2017-11-16T04:52:36.393Z,16.50
2017-11-16T04:55:02.769Z,16.10
2017-11-16T04:57:29.111Z,16.52
2017-11-16T04:59:55.450Z,16.15
2017-11-16T05:02:21.830Z,16.52
2017-11-16T05:04:48.187Z,18.87
2017-11-16T05:07:14.529Z,17.98
2017-11-16T05:09:40.881Z,14.75
2017-11-16T05:12:07.237Z,14.73
2017-11-16T05:14:33.605Z,16.48
2017-11-16T05:16:59.990Z,17.52
2017-11-16T05:19:26.370Z,18.30
2017-11-16T05:21:53.502Z,17.83
2017-11-16T05:24:19.890Z,21.62
2017-11-16T05:26:46.278Z,18.42
2017-11-16T05:29:12.621Z,20.48
2017-11-16T05:31:39.740Z,21.67
2017-11-16T05:34:06.148Z,19.20
2017-11-16T05:36:32.542Z,21.12
2017-11-16T05:38:58.902Z,18.62
2017-11-16T05:41:26.003Z,17.60
2017-11-16T05:43:52.339Z,22.20
2017-11-16T05:46:20.895Z,19.73
2017-11-16T05:48:47.786Z,21.83
2017-11-16T05:51:13.935Z,21.40
2017-11-16T05:53:40.112Z,20.37
2017-11-16T05:56:06.242Z,19.33
2017-11-16T05:58:32.383Z,20.80
2017-11-16T06:00:58.539Z,20.50
2017-11-16T06:03:24.930Z,21.87
2017-11-16T06:05:51.274Z,24.92
2017-11-16T06:08:17.751Z,22.45
2017-11-16T06:10:44.104Z,21.92
2017-11-16T06:13:10.427Z,23.80
2017-11-16T06:15:36.775Z,25.67
2017-11-16T06:18:03.100Z,22.55
2017-11-16T06:20:29.436Z,26.40
2017-11-16T06:22:55.893Z,22.17
2017-11-16T06:25:22.230Z,21.50
2017-11-16T06:27:48.686Z,21.95
2017-11-16T06:30:15.823Z,22.52
2017-11-16T06:32:42.944Z,24.25
2017-11-16T06:35:09.178Z,24.55
2017-11-16T06:37:35.425Z,20.58
2017-11-16T06:40:01.582Z,22.92
2017-11-16T06:42:28.659Z,23.38
2017-11-16T06:44:54.788Z,24.25
2017-11-16T06:47:24.086Z,24.37
2017-11-16T06:49:50.220Z,25.92
2017-11-16T06:52:17.218Z,28.58
2017-11-16T06:54:43.380Z,23.27
2017-11-16T06:57:09.491Z,30.00
2017-11-16T06:59:35.680Z,27.62
2017-11-16T07:02:02.482Z,27.60
2017-11-16T07:04:28.609Z,24.48
2017-11-16T07:06:54.735Z,22.15
2017-11-16T07:09:21.683Z,25.37
2017-11-16T07:11:47.806Z,25.05
2017-11-16T07:14:13.953Z,23.90
2017-11-16T07:16:41.166Z,26.60
2017-11-16T07:19:07.313Z,27.08
2017-11-16T07:21:34.385Z,24.02
2017-11-16T07:24:00.635Z,27.67
2017-11-16T07:26:26.771Z,25.12
2017-11-16T07:28:52.913Z,25.80
2017-11-16T07:31:19.062Z,23.62
2017-11-16T07:33:45.322Z,29.75
2017-11-16T07:36:11.469Z,27.02
2017-11-16T07:41:35.957Z,27.02
2017-11-16T07:44:02.096Z,25.95
2017-11-16T07:46:28.279Z,28.85
2017-11-16T07:48:54.429Z,27.83
2017-11-16T07:51:23.175Z,31.37
2017-11-16T07:53:49.544Z,25.33
2017-11-16T07:56:15.962Z,27.80
2017-11-16T07:58:42.300Z,24.90
2017-11-16T08:01:08.629Z,25.88
2017-11-16T08:03:35.010Z,26.77
2017-11-16T08:06:01.357Z,26.70
2017-11-16T08:08:33.052Z,26.73
2017-11-16T08:10:59.449Z,26.08
2017-11-16T08:13:25.737Z,24.25
2017-11-16T08:15:52.285Z,27.10
2017-11-16T08:18:18.646Z,29.55
2017-11-16T08:20:45.782Z,25.42
2017-11-16T08:23:12.207Z,25.12
2017-11-16T08:25:39.298Z,27.17
2017-11-16T08:28:07.966Z,24.55
2017-11-16T08:30:34.317Z,27.17
2017-11-16T08:33:00.669Z,26.92
2017-11-16T08:35:27.006Z,26.70
2017-11-16T08:37:53.320Z,28.73
2017-11-16T08:40:19.706Z,25.48
2017-11-16T08:42:46.110Z,26.27
2017-11-16T08:47:45.474Z,26.08
2017-11-16T08:50:11.645Z,24.00
2017-11-16T08:52:37.918Z,23.00
2017-11-16T08:55:04.263Z,28.92
2017-11-16T08:57:30.457Z,27.87
2017-11-16T09:02:29.401Z,24.75
2017-11-16T09:04:55.603Z,22.70
2017-11-16T09:07:22.502Z,28.12
2017-11-16T09:09:48.673Z,23.73
2017-11-16T09:12:15.569Z,28.25
2017-11-16T09:14:41.688Z,26.48
2017-11-16T09:17:11.074Z,26.60
2017-11-16T09:19:37.225Z,22.48
2017-11-16T09:22:04.161Z,27.05
2017-11-16T09:24:30.287Z,24.48
2017-11-16T09:26:56.479Z,23.73
2017-11-16T09:29:22.625Z,24.08
2017-11-16T09:31:48.761Z,26.37
2017-11-16T09:34:21.907Z,25.65
2017-11-16T09:36:48.069Z,25.70
2017-11-16T09:39:14.208Z,24.08
2017-11-16T09:41:40.333Z,27.80
2017-11-16T09:44:06.479Z,24.48
2017-11-16T09:46:33.338Z,21.02
2017-11-16T09:48:59.594Z,22.85
2017-11-16T09:51:28.792Z,22.92
2017-11-16T09:53:55.062Z,22.65
2017-11-16T09:56:21.457Z,28.67
2017-11-16T09:58:47.765Z,23.67
2017-11-16T10:01:14.142Z,24.12
2017-11-16T10:03:40.486Z,23.10
2017-11-16T10:06:06.834Z,23.65
2017-11-16T10:08:36.242Z,24.35
2017-11-16T10:11:02.618Z,25.45
2017-11-16T10:13:28.941Z,23.92
2017-11-16T10:15:55.289Z,22.75
2017-11-16T10:18:22.343Z,24.23
2017-11-16T10:20:48.668Z,25.65
2017-11-16T10:23:21.500Z,22.25
2017-11-16T10:25:47.692Z,21.90
2017-11-16T10:28:13.807Z,24.02
2017-11-16T10:30:39.955Z,24.70
2017-11-16T10:33:06.085Z,24.48
2017-11-16T10:35:32.979Z,23.40
2017-11-16T10:38:03.043Z,24.52
2017-11-16T10:40:29.218Z,24.90
2017-11-16T10:42:55.393Z,26.12
2017-11-16T10:45:22.138Z,23.55
2017-11-16T10:47:48.419Z,23.92
2017-11-16T10:50:15.267Z,25.52
2017-11-16T10:52:42.148Z,25.40
2017-11-16T10:55:08.274Z,26.67
2017-11-16T10:57:38.374Z,20.27
2017-11-16T11:00:04.519Z,24.87
2017-11-16T11:02:30.766Z,22.33
2017-11-16T11:04:56.902Z,21.12
2017-11-16T11:07:23.029Z,22.75
2017-11-16T11:09:50.076Z,25.33
2017-11-16T11:12:16.240Z,22.40
2017-11-16T11:14:42.382Z,25.65
2017-11-16T11:17:13.303Z,25.05
2017-11-16T11:19:40.187Z,22.62
2017-11-16T11:22:07.056Z,24.08
2017-11-16T11:24:33.194Z,23.80
2017-11-16T11:26:59.335Z,21.85
2017-11-16T11:29:25.501Z,22.00
2017-11-16T11:31:51.610Z,23.12
2017-11-16T11:34:18.554Z,26.08
2017-11-16T11:36:45.389Z,22.35
2017-11-16T11:39:11.542Z,21.77
2017-11-16T11:41:37.687Z,23.30
2017-11-16T11:44:04.541Z,25.80
2017-11-16T11:46:30.694Z,21.50
2017-11-16T11:48:56.841Z,22.42
2017-11-16T11:51:22.958Z,24.48
2017-11-16T11:53:49.128Z,32.90
2017-11-16T11:56:15.248Z,23.12
2017-11-16T11:58:41.390Z,23.02
2017-11-16T12:01:07.633Z,21.92
2017-11-16T12:03:33.763Z,25.90
2017-11-16T12:05:59.908Z,22.67
2017-11-16T12:08:26.070Z,25.70
2017-11-16T12:10:52.997Z,27.17
2017-11-16T12:13:19.106Z,24.27
2017-11-16T12:15:45.973Z,27.20
2017-11-16T12:18:12.113Z,24.60
2017-11-16T12:20:38.961Z,25.52
2017-11-16T12:23:05.086Z,25.67
2017-11-16T12:25:31.974Z,26.52
2017-11-16T12:27:58.123Z,30.00
2017-11-16T12:30:24.267Z,24.08
2017-11-16T12:32:50.407Z,24.37
2017-11-16T12:35:16.535Z,24.73
2017-11-16T12:37:42.919Z,23.52
2017-11-16T12:40:09.057Z,22.98
2017-11-16T12:42:36.171Z,26.40
2017-11-16T12:45:02.327Z,24.37
2017-11-16T12:47:28.480Z,21.67
2017-11-16T12:49:54.631Z,22.30
2017-11-16T12:52:20.772Z,20.65
2017-11-16T12:54:46.887Z,19.98
2017-11-16T12:57:13.273Z,23.20
2017-11-16T12:59:40.428Z,20.42
2017-11-16T13:02:07.303Z,20.85
2017-11-16T13:04:33.456Z,22.23
2017-11-16T13:07:00.330Z,20.30
2017-11-16T13:09:26.760Z,24.25
2017-11-16T13:11:52.831Z,23.65
2017-11-16T13:14:18.958Z,26.27
2017-11-16T13:16:45.288Z,22.50
2017-11-16T13:19:11.628Z,21.37
2017-11-16T13:21:37.961Z,22.08
2017-11-16T13:24:04.317Z,23.02
2017-11-16T13:26:31.396Z,19.80
2017-11-16T13:28:58.488Z,22.58
2017-11-16T13:31:24.829Z,23.83
2017-11-16T13:33:51.140Z,25.70
2017-11-16T13:36:21.946Z,24.15
2017-11-16T13:38:48.310Z,24.15
2017-11-16T13:41:14.913Z,20.62
2017-11-16T13:43:41.027Z,21.27
2017-11-16T13:46:08.097Z,25.45
2017-11-16T13:48:34.237Z,21.45
2017-11-16T13:51:01.300Z,20.83
2017-11-16T13:53:28.172Z,22.00
2017-11-16T13:55:57.661Z,24.17
2017-11-16T13:58:24.008Z,24.58
2017-11-16T14:00:50.331Z,24.25
2017-11-16T14:03:16.676Z,23.33
2017-11-16T14:05:43.025Z,25.73
2017-11-16T14:08:10.124Z,23.08
2017-11-16T14:10:36.270Z,20.12
2017-11-16T14:13:07.285Z,20.75
2017-11-16T14:15:33.611Z,22.13
2017-11-16T14:18:00.674Z,20.00
2017-11-16T14:20:26.984Z,22.33
2017-11-16T14:22:54.064Z,24.40
2017-11-16T14:25:20.433Z,22.15
2017-11-16T14:27:46.769Z,18.87
2017-11-16T14:30:16.774Z,22.50
2017-11-16T14:32:43.100Z,18.80
2017-11-16T14:35:09.455Z,19.65
2017-11-16T14:37:35.916Z,19.10
2017-11-16T14:40:02.321Z,19.87
2017-11-16T14:42:29.434Z,20.65
2017-11-16T14:44:55.774Z,19.90
2017-11-16T14:47:25.914Z,23.02
2017-11-16T14:49:52.268Z,19.80
2017-11-16T14:52:18.618Z,19.92
2017-11-16T14:54:44.933Z,21.58
2017-11-16T14:57:11.297Z,17.65
2017-11-16T14:59:37.671Z,18.05
2017-11-16T15:02:04.041Z,18.65
2017-11-16T15:04:35.689Z,17.67
2017-11-16T15:07:02.014Z,20.15
2017-11-16T15:09:28.443Z,18.73
2017-11-16T15:11:55.502Z,19.98
2017-11-16T15:14:21.867Z,17.30
2017-11-16T15:16:48.284Z,22.02
2017-11-16T15:19:19.807Z,18.23
2017-11-16T15:21:46.871Z,19.90
2017-11-16T15:24:13.056Z,18.25
2017-11-16T15:26:39.178Z,18.73
2017-11-16T15:29:06.051Z,19.40
2017-11-16T15:31:32.923Z,16.58
2017-11-16T15:33:59.817Z,19.10
2017-11-16T15:36:28.986Z,19.52
2017-11-16T15:38:55.332Z,20.77
2017-11-16T15:43:54.378Z,21.23
2017-11-16T15:46:20.501Z,21.17
2017-11-16T15:48:46.616Z,23.08
2017-11-16T15:51:18.958Z,22.42
2017-11-16T15:53:45.123Z,17.35
2017-11-16T15:56:11.267Z,33.30
2017-11-16T15:58:37.418Z,25.05
2017-11-16T16:01:04.304Z,21.00
2017-11-16T16:03:31.183Z,19.58
2017-11-16T16:05:58.094Z,25.55
2017-11-16T16:08:24.246Z,22.80
2017-11-16T16:10:52.321Z,19.35
2017-11-16T16:13:19.317Z,17.55
2017-11-16T16:15:46.186Z,19.25
2017-11-16T16:18:12.323Z,17.37
2017-11-16T16:20:39.169Z,21.85
2017-11-16T16:23:05.342Z,21.58
2017-11-16T16:25:31.480Z,21.33
2017-11-16T16:27:57.635Z,19.10
2017-11-16T16:30:27.325Z,20.62
2017-11-16T16:32:54.226Z,20.25
2017-11-16T16:35:20.338Z,17.25
2017-11-16T16:37:46.486Z,18.33
2017-11-16T16:40:12.597Z,22.67
2017-11-16T16:42:38.748Z,17.55
2017-11-16T16:45:05.769Z,19.87
2017-11-16T16:47:36.118Z,19.73
2017-11-16T16:50:02.281Z,19.98
2017-11-16T16:52:28.491Z,19.50
2017-11-16T16:54:54.657Z,19.27
2017-11-16T16:57:21.521Z,18.27
2017-11-16T16:59:47.643Z,21.83
2017-11-16T17:02:13.816Z,18.60
2017-11-16T17:07:11.142Z,25.08
2017-11-16T17:09:37.317Z,22.17
2017-11-16T17:12:04.001Z,24.33
2017-11-16T17:14:30.135Z,23.40
2017-11-16T17:16:56.278Z,28.10
2017-11-16T17:19:23.157Z,24.30
2017-11-16T17:24:22.199Z,19.45
2017-11-16T17:26:48.326Z,27.65
2017-11-16T17:29:15.578Z,21.50
2017-11-16T17:31:41.704Z,25.52
2017-11-16T17:34:07.860Z,25.45
2017-11-16T17:36:34.019Z,34.80
2017-11-16T17:39:05.509Z,34.25
2017-11-16T17:41:31.631Z,28.40
2017-11-16T17:43:57.758Z,23.92
2017-11-16T17:46:23.911Z,26.70
2017-11-16T17:48:50.084Z,27.67
2017-11-16T17:51:16.246Z,27.02
2017-11-16T17:53:42.385Z,27.05
2017-11-16T17:56:08.505Z,23.33
2017-11-16T17:58:37.146Z,22.75
2017-11-16T18:01:04.218Z,25.88
2017-11-16T18:03:30.370Z,26.08
2017-11-16T18:05:56.550Z,25.52
2017-11-16T18:08:22.691Z,27.15
2017-11-16T18:10:48.829Z,25.92
2017-11-16T18:13:21.814Z,30.17
2017-11-16T18:15:47.948Z,25.58
2017-11-16T18:18:14.071Z,24.83
2017-11-16T18:20:41.038Z,27.37
2017-11-16T18:23:07.166Z,25.50
2017-11-16T18:25:33.334Z,29.37
2017-11-16T18:27:59.504Z,26.90
2017-11-16T18:30:30.654Z,28.27
2017-11-16T18:32:57.438Z,27.58
2017-11-16T18:35:23.552Z,26.77
2017-11-16T18:37:50.427Z,25.52
2017-11-16T18:40:16.578Z,30.08
2017-11-16T18:42:42.718Z,27.90
2017-11-16T18:45:08.930Z,29.42
2017-11-16T18:47:38.449Z,29.60
2017-11-16T18:50:06.053Z,24.27
2017-11-16T18:52:32.193Z,22.42
2017-11-16T18:54:58.314Z,26.27
2017-11-16T18:57:24.462Z,25.45
2017-11-16T18:59:50.592Z,25.17
2017-11-16T19:02:16.713Z,26.67
2017-11-16T19:04:43.076Z,26.73
2017-11-16T19:07:09.209Z,33.03
2017-11-16T19:09:38.167Z,27.73
2017-11-16T19:12:04.321Z,27.23
2017-11-16T19:14:30.454Z,30.48
2017-11-16T19:16:57.310Z,26.60
2017-11-16T19:19:23.447Z,24.75
2017-11-16T19:21:50.330Z,28.00
2017-11-16T19:24:16.647Z,28.75
2017-11-16T19:26:43.513Z,27.13
2017-11-16T19:29:15.685Z,30.10
2017-11-16T19:31:41.811Z,24.05
2017-11-16T19:34:07.930Z,26.37
2017-11-16T19:36:34.822Z,27.67
2017-11-16T19:39:01.030Z,25.45
2017-11-16T19:41:27.159Z,27.13
2017-11-16T19:43:57.129Z,26.95
2017-11-16T19:46:23.277Z,27.20
2017-11-16T19:48:49.393Z,30.05
2017-11-16T19:51:15.546Z,33.45
2017-11-16T19:53:41.773Z,31.10
2017-11-16T19:56:07.883Z,31.20
2017-11-16T19:58:34.026Z,38.47
2017-11-16T20:01:00.208Z,33.40
2017-11-16T20:03:33.111Z,34.70
2017-11-16T20:06:02.595Z,37.97
2017-11-16T20:08:28.707Z,37.67
2017-11-16T20:10:55.120Z,37.53
2017-11-16T20:13:22.708Z,39.08
2017-11-16T20:15:48.838Z,42.72
2017-11-16T20:18:15.001Z,43.97
2017-11-16T20:20:41.108Z,40.15
2017-11-16T20:23:12.175Z,38.75
2017-11-16T20:25:38.347Z,39.47
2017-11-16T20:28:04.481Z,40.08
2017-11-16T20:30:30.594Z,42.90
2017-11-16T20:32:56.713Z,49.25
2017-11-16T20:35:23.622Z,46.17
2017-11-16T20:37:59.547Z,43.65
2017-11-16T20:40:28.528Z,37.92
2017-11-16T20:42:55.510Z,40.92
2017-11-16T20:45:24.575Z,47.42
2017-11-16T20:48:08.805Z,45.05
2017-11-16T20:50:41.236Z,45.10
2017-11-16T20:53:07.546Z,47.55
2017-11-16T20:55:37.211Z,47.90
2017-11-16T20:58:03.625Z,55.28
2017-11-16T21:00:30.697Z,45.05
2017-11-16T21:02:57.194Z,45.63
2017-11-16T21:05:24.144Z,51.30
2017-11-16T21:07:50.465Z,48.92
2017-11-16T21:10:16.773Z,53.87
2017-11-16T21:12:43.115Z,48.67
2017-11-16T21:15:10.214Z,46.53
2017-11-16T21:17:36.585Z,51.03
2017-11-16T21:20:02.970Z,53.28
2017-11-16T21:22:30.035Z,46.25
2017-11-16T21:24:56.380Z,46.75
2017-11-16T21:27:22.776Z,48.25
2017-11-16T21:29:49.104Z,54.50
2017-11-16T21:32:15.441Z,47.53
2017-11-16T21:34:41.761Z,60.00
2017-11-16T21:37:08.814Z,54.20
2017-11-16T21:39:35.178Z,54.20
2017-11-16T21:42:01.673Z,60.45
2017-11-16T21:44:28.026Z,61.25
2017-11-16T21:46:54.394Z,47.00
2017-11-16T21:49:21.526Z,58.83
2017-11-16T21:51:47.888Z,55.05
2017-11-16T21:54:15.842Z,59.60
2017-11-16T21:56:42.153Z,61.05
2017-11-16T21:59:08.488Z,68.10
2017-11-16T22:01:35.083Z,63.42
2017-11-16T22:04:01.541Z,59.65
2017-11-16T22:06:27.981Z,60.25
2017-11-16T22:08:54.326Z,66.62
2017-11-16T22:11:20.700Z,61.05
2017-11-16T22:13:47.798Z,60.10
2017-11-16T22:16:14.179Z,53.92
2017-11-16T22:18:41.286Z,66.18
2017-11-16T22:21:07.950Z,63.28
2017-11-16T22:23:34.278Z,56.65
2017-11-16T22:26:01.312Z,61.15
2017-11-16T22:28:28.360Z,61.72
2017-11-16T22:30:54.674Z,69.78
2017-11-16T22:33:21.004Z,59.72
2017-11-16T22:35:47.338Z,62.10
2017-11-16T22:38:13.673Z,63.42
2017-11-16T22:40:40.018Z,61.37
2017-11-16T22:43:06.349Z,59.08
2017-11-16T22:45:32.664Z,65.50
2017-11-16T22:47:58.970Z,57.67
2017-11-16T22:50:25.399Z,64.60
2017-11-16T22:52:51.777Z,59.92
2017-11-16T22:55:19.573Z,61.13
2017-11-16T22:57:45.903Z,54.25
2017-11-16T23:00:13.036Z,61.67
2017-11-16T23:02:39.141Z,54.25
2017-11-16T23:05:05.274Z,59.05
2017-11-16T23:07:31.501Z,57.15
2017-11-16T23:09:58.343Z,59.33
2017-11-16T23:12:25.429Z,55.08
2017-11-16T23:14:51.615Z,56.45
2017-11-16T23:17:17.729Z,54.70
2017-11-16T23:19:44.047Z,57.83
2017-11-16T23:22:10.665Z,56.13
2017-11-16T23:24:37.220Z,60.38
2017-11-16T23:27:03.581Z,55.70
2017-11-16T23:29:31.176Z,62.88
2017-11-16T23:31:58.201Z,70.93
2017-11-16T23:34:24.552Z,55.55
2017-11-16T23:36:51.622Z,61.47
2017-11-16T23:39:18.695Z,58.03
2017-11-16T23:41:44.838Z,55.67
2017-11-16T23:44:10.969Z,61.28
2017-11-16T23:46:37.118Z,54.20
2017-11-16T23:49:03.442Z,62.40
2017-11-16T23:51:30.484Z,62.42
2017-11-16T23:53:56.610Z,54.78
2017-11-16T23:56:23.643Z,57.15
2017-11-16T23:58:49.953Z,54.67
